Terminal Aerodrome Forecast
Issued by NWS

Home | Current Version | Previous Version | Text Only | Print | Product List | Glossary On
Versions: 1 2 3 4 5 6 7 8 9 10 11 12 13 14 15 16 17 18 19 20 21 22 23 24 25 26 27 28 29 30 31 32
153
FTUS41 KOKX 302035 AAA
TAFGON
TAF AMD
KGON 302035Z 3021/3118 16010KT P6SM BKN100
     FM310100 16005KT P6SM OVC050
     FM310400 14007KT P6SM OVC025
     FM311000 12010KT 4SM SHRA BR OVC015=

USA.gov is the U.S. government's official web portal to all federal, state and local government web resources and services.